sensor_id;sensor_type;location;lat;lon;timestamp;temperature;humidity
73360;DHT22;63092;43.582;19.528;2023-06-19T00:00:19;16.90;99.90
73360;DHT22;63092;43.582;19.528;2023-06-19T00:02:45;16.90;99.90
73360;DHT22;63092;43.582;19.528;2023-06-19T00:05:12;16.90;99.90
73360;DHT22;63092;43.582;19.528;2023-06-19T00:07:38;16.80;99.90
73360;DHT22;63092;43.582;19.528;2023-06-19T00:10:05;16.60;99.90
73360;DHT22;63092;43.582;19.528;2023-06-19T00:12:31;16.60;99.90
73360;DHT22;63092;43.582;19.528;2023-06-19T00:14:57;16.60;99.90
73360;DHT22;63092;43.582;19.528;2023-06-19T00:17:23;16.70;99.90
73360;DHT22;63092;43.582;19.528;2023-06-19T00:19:52;16.70;99.90
73360;DHT22;63092;43.582;19.528;2023-06-19T00:24:44;16.60;99.90
73360;DHT22;63092;43.582;19.528;2023-06-19T00:27:09;16.60;99.90
73360;DHT22;63092;43.582;19.528;2023-06-19T00:29:35;16.60;99.90
73360;DHT22;63092;43.582;19.528;2023-06-19T00:32:01;16.60;99.90
73360;DHT22;63092;43.582;19.528;2023-06-19T00:34:29;16.60;99.90
73360;DHT22;63092;43.582;19.528;2023-06-19T00:36:55;16.60;99.90
73360;DHT22;63092;43.582;19.528;2023-06-19T00:39:25;16.50;99.90
73360;DHT22;63092;43.582;19.528;2023-06-19T00:41:54;16.50;99.90
73360;DHT22;63092;43.582;19.528;2023-06-19T00:44:20;16.40;99.90
73360;DHT22;63092;43.582;19.528;2023-06-19T00:46:46;16.30;99.90
73360;DHT22;63092;43.582;19.528;2023-06-19T00:49:14;16.30;99.90
73360;DHT22;63092;43.582;19.528;2023-06-19T00:51:40;16.10;99.90
73360;DHT22;63092;43.582;19.528;2023-06-19T00:54:06;16.10;99.90
73360;DHT22;63092;43.582;19.528;2023-06-19T00:56:33;16.10;99.90
73360;DHT22;63092;43.582;19.528;2023-06-19T00:59:00;15.90;99.90
73360;DHT22;63092;43.582;19.528;2023-06-19T01:01:27;15.90;99.90
73360;DHT22;63092;43.582;19.528;2023-06-19T01:03:54;15.90;99.90
73360;DHT22;63092;43.582;19.528;2023-06-19T01:06:23;15.90;99.90
73360;DHT22;63092;43.582;19.528;2023-06-19T01:09:03;15.80;99.90
73360;DHT22;63092;43.582;19.528;2023-06-19T01:11:41;15.70;99.90
73360;DHT22;63092;43.582;19.528;2023-06-19T01:14:14;15.80;99.90
73360;DHT22;63092;43.582;19.528;2023-06-19T01:16:41;15.80;99.90
73360;DHT22;63092;43.582;19.528;2023-06-19T01:19:10;15.90;99.90
73360;DHT22;63092;43.582;19.528;2023-06-19T01:21:36;15.90;99.90
73360;DHT22;63092;43.582;19.528;2023-06-19T01:24:02;15.90;99.90
73360;DHT22;63092;43.582;19.528;2023-06-19T01:26:28;15.80;99.90
73360;DHT22;63092;43.582;19.528;2023-06-19T01:28:55;15.90;99.90
73360;DHT22;63092;43.582;19.528;2023-06-19T01:31:29;15.90;99.90
73360;DHT22;63092;43.582;19.528;2023-06-19T01:33:57;15.90;99.90
73360;DHT22;63092;43.582;19.528;2023-06-19T01:36:25;15.90;99.90
73360;DHT22;63092;43.582;19.528;2023-06-19T01:38:51;15.90;99.90
73360;DHT22;63092;43.582;19.528;2023-06-19T01:41:19;15.90;99.90
73360;DHT22;63092;43.582;19.528;2023-06-19T01:43:46;15.90;99.90
73360;DHT22;63092;43.582;19.528;2023-06-19T01:46:13;15.90;99.90
73360;DHT22;63092;43.582;19.528;2023-06-19T01:48:39;16.00;99.90
73360;DHT22;63092;43.582;19.528;2023-06-19T01:51:05;15.90;99.90
73360;DHT22;63092;43.582;19.528;2023-06-19T01:53:31;15.90;99.90
73360;DHT22;63092;43.582;19.528;2023-06-19T01:56:00;15.80;99.90
73360;DHT22;63092;43.582;19.528;2023-06-19T01:58:26;15.80;99.90
73360;DHT22;63092;43.582;19.528;2023-06-19T02:00:52;15.80;99.90
73360;DHT22;63092;43.582;19.528;2023-06-19T02:03:17;15.40;99.90
73360;DHT22;63092;43.582;19.528;2023-06-19T02:05:43;15.30;99.90
73360;DHT22;63092;43.582;19.528;2023-06-19T02:08:09;15.50;99.90
73360;DHT22;63092;43.582;19.528;2023-06-19T02:10:35;15.50;99.90
73360;DHT22;63092;43.582;19.528;2023-06-19T02:13:00;15.60;99.90
73360;DHT22;63092;43.582;19.528;2023-06-19T02:15:26;15.60;99.90
73360;DHT22;63092;43.582;19.528;2023-06-19T02:17:55;15.70;99.90
73360;DHT22;63092;43.582;19.528;2023-06-19T02:20:21;15.60;99.90
73360;DHT22;63092;43.582;19.528;2023-06-19T02:22:47;15.70;99.90
73360;DHT22;63092;43.582;19.528;2023-06-19T02:25:13;15.70;99.90
73360;DHT22;63092;43.582;19.528;2023-06-19T02:27:39;15.60;99.90
73360;DHT22;63092;43.582;19.528;2023-06-19T02:32:31;15.40;99.90
73360;DHT22;63092;43.582;19.528;2023-06-19T02:34:57;15.30;99.90
73360;DHT22;63092;43.582;19.528;2023-06-19T02:39:49;15.10;99.90
73360;DHT22;63092;43.582;19.528;2023-06-19T02:42:15;15.20;99.90
73360;DHT22;63092;43.582;19.528;2023-06-19T02:44:40;15.00;99.90
73360;DHT22;63092;43.582;19.528;2023-06-19T02:47:08;15.10;99.90
73360;DHT22;63092;43.582;19.528;2023-06-19T02:49:33;15.10;99.90
73360;DHT22;63092;43.582;19.528;2023-06-19T02:51:59;15.10;99.90
73360;DHT22;63092;43.582;19.528;2023-06-19T02:54:25;15.10;99.90
73360;DHT22;63092;43.582;19.528;2023-06-19T02:56:51;15.00;99.90
73360;DHT22;63092;43.582;19.528;2023-06-19T02:59:17;15.00;99.90
73360;DHT22;63092;43.582;19.528;2023-06-19T03:01:43;15.00;99.90
73360;DHT22;63092;43.582;19.528;2023-06-19T03:04:08;15.10;99.90
73360;DHT22;63092;43.582;19.528;2023-06-19T03:06:34;15.00;99.90
73360;DHT22;63092;43.582;19.528;2023-06-19T03:09:06;15.20;99.90
73360;DHT22;63092;43.582;19.528;2023-06-19T03:11:38;15.20;99.90
73360;DHT22;63092;43.582;19.528;2023-06-19T03:14:05;15.30;99.90
73360;DHT22;63092;43.582;19.528;2023-06-19T03:16:33;15.10;99.90
73360;DHT22;63092;43.582;19.528;2023-06-19T03:18:59;15.10;99.90
73360;DHT22;63092;43.582;19.528;2023-06-19T03:21:26;15.20;99.90
73360;DHT22;63092;43.582;19.528;2023-06-19T03:23:51;15.10;99.90
73360;DHT22;63092;43.582;19.528;2023-06-19T03:26:19;15.20;99.90
73360;DHT22;63092;43.582;19.528;2023-06-19T03:28:45;15.20;99.90
73360;DHT22;63092;43.582;19.528;2023-06-19T03:31:12;15.10;99.90
73360;DHT22;63092;43.582;19.528;2023-06-19T03:33:38;15.10;99.90
73360;DHT22;63092;43.582;19.528;2023-06-19T03:36:04;15.20;99.90
73360;DHT22;63092;43.582;19.528;2023-06-19T03:38:30;15.10;99.90
73360;DHT22;63092;43.582;19.528;2023-06-19T03:40:56;15.20;99.90
73360;DHT22;63092;43.582;19.528;2023-06-19T03:43:22;15.10;99.90
73360;DHT22;63092;43.582;19.528;2023-06-19T03:45:48;15.10;99.90
73360;DHT22;63092;43.582;19.528;2023-06-19T03:48:14;15.10;99.90
73360;DHT22;63092;43.582;19.528;2023-06-19T03:50:40;14.90;99.90
73360;DHT22;63092;43.582;19.528;2023-06-19T03:53:06;15.00;99.90
73360;DHT22;63092;43.582;19.528;2023-06-19T03:55:32;15.00;99.90
73360;DHT22;63092;43.582;19.528;2023-06-19T03:57:58;15.00;99.90
73360;DHT22;63092;43.582;19.528;2023-06-19T04:00:23;14.90;99.90
73360;DHT22;63092;43.582;19.528;2023-06-19T04:02:49;14.90;99.90
73360;DHT22;63092;43.582;19.528;2023-06-19T04:05:15;14.90;99.90
73360;DHT22;63092;43.582;19.528;2023-06-19T04:07:45;14.90;99.90
73360;DHT22;63092;43.582;19.528;2023-06-19T04:10:11;14.90;99.90
73360;DHT22;63092;43.582;19.528;2023-06-19T04:12:39;14.90;99.90
73360;DHT22;63092;43.582;19.528;2023-06-19T04:15:06;14.90;99.90
73360;DHT22;63092;43.582;19.528;2023-06-19T04:17:32;14.90;99.90
73360;DHT22;63092;43.582;19.528;2023-06-19T04:19:58;14.80;99.90
73360;DHT22;63092;43.582;19.528;2023-06-19T04:22:24;14.90;99.90
73360;DHT22;63092;43.582;19.528;2023-06-19T04:24:49;14.90;99.90
73360;DHT22;63092;43.582;19.528;2023-06-19T04:27:15;15.00;99.90
73360;DHT22;63092;43.582;19.528;2023-06-19T04:29:41;15.00;99.90
73360;DHT22;63092;43.582;19.528;2023-06-19T04:32:06;14.50;99.90
73360;DHT22;63092;43.582;19.528;2023-06-19T04:34:38;14.80;99.90
73360;DHT22;63092;43.582;19.528;2023-06-19T04:37:04;14.90;99.90
73360;DHT22;63092;43.582;19.528;2023-06-19T04:39:30;14.90;99.90
73360;DHT22;63092;43.582;19.528;2023-06-19T04:41:55;14.90;99.90
73360;DHT22;63092;43.582;19.528;2023-06-19T04:44:21;15.00;99.90
73360;DHT22;63092;43.582;19.528;2023-06-19T04:46:47;15.00;99.90
73360;DHT22;63092;43.582;19.528;2023-06-19T04:49:13;14.90;99.90
73360;DHT22;63092;43.582;19.528;2023-06-19T04:51:40;15.00;99.90
73360;DHT22;63092;43.582;19.528;2023-06-19T04:54:06;15.10;99.90
73360;DHT22;63092;43.582;19.528;2023-06-19T04:56:32;15.10;99.90
73360;DHT22;63092;43.582;19.528;2023-06-19T04:58:58;15.10;99.90
73360;DHT22;63092;43.582;19.528;2023-06-19T05:01:26;15.10;99.90
73360;DHT22;63092;43.582;19.528;2023-06-19T05:03:56;14.90;99.90
73360;DHT22;63092;43.582;19.528;2023-06-19T05:06:25;15.10;99.90
73360;DHT22;63092;43.582;19.528;2023-06-19T05:08:51;15.10;99.90
73360;DHT22;63092;43.582;19.528;2023-06-19T05:11:18;15.20;99.90
73360;DHT22;63092;43.582;19.528;2023-06-19T05:13:44;15.00;99.90
73360;DHT22;63092;43.582;19.528;2023-06-19T05:16:10;15.00;99.90
73360;DHT22;63092;43.582;19.528;2023-06-19T05:18:37;15.00;99.90
73360;DHT22;63092;43.582;19.528;2023-06-19T05:21:02;14.90;99.90
73360;DHT22;63092;43.582;19.528;2023-06-19T05:23:28;14.90;99.90
73360;DHT22;63092;43.582;19.528;2023-06-19T05:25:54;15.00;99.90
73360;DHT22;63092;43.582;19.528;2023-06-19T05:28:19;15.00;99.90
73360;DHT22;63092;43.582;19.528;2023-06-19T05:30:45;15.10;99.90
73360;DHT22;63092;43.582;19.528;2023-06-19T05:33:11;15.20;99.90
73360;DHT22;63092;43.582;19.528;2023-06-19T05:35:41;15.20;99.90
73360;DHT22;63092;43.582;19.528;2023-06-19T05:38:07;15.20;99.90
73360;DHT22;63092;43.582;19.528;2023-06-19T05:40:33;15.30;99.90
73360;DHT22;63092;43.582;19.528;2023-06-19T05:42:59;15.30;99.90
73360;DHT22;63092;43.582;19.528;2023-06-19T05:45:24;15.50;99.90
73360;DHT22;63092;43.582;19.528;2023-06-19T05:47:50;15.60;99.90
73360;DHT22;63092;43.582;19.528;2023-06-19T05:50:16;15.80;99.90
73360;DHT22;63092;43.582;19.528;2023-06-19T05:52:41;15.70;99.90
73360;DHT22;63092;43.582;19.528;2023-06-19T05:55:09;15.40;99.90
73360;DHT22;63092;43.582;19.528;2023-06-19T05:57:35;15.40;99.90
73360;DHT22;63092;43.582;19.528;2023-06-19T06:00:01;15.40;99.90
73360;DHT22;63092;43.582;19.528;2023-06-19T06:02:27;15.40;99.90
73360;DHT22;63092;43.582;19.528;2023-06-19T06:04:53;15.50;99.90
73360;DHT22;63092;43.582;19.528;2023-06-19T06:07:19;15.70;99.90
73360;DHT22;63092;43.582;19.528;2023-06-19T06:09:45;15.60;99.90
73360;DHT22;63092;43.582;19.528;2023-06-19T06:12:11;15.70;99.90
73360;DHT22;63092;43.582;19.528;2023-06-19T06:17:03;16.00;99.90
73360;DHT22;63092;43.582;19.528;2023-06-19T06:19:30;16.20;99.90
73360;DHT22;63092;43.582;19.528;2023-06-19T06:21:56;16.30;99.90
73360;DHT22;63092;43.582;19.528;2023-06-19T06:24:22;16.30;99.90
73360;DHT22;63092;43.582;19.528;2023-06-19T06:26:47;16.30;99.90
73360;DHT22;63092;43.582;19.528;2023-06-19T06:29:13;16.60;99.90
73360;DHT22;63092;43.582;19.528;2023-06-19T06:31:39;16.70;99.90
73360;DHT22;63092;43.582;19.528;2023-06-19T06:34:07;16.80;99.90
73360;DHT22;63092;43.582;19.528;2023-06-19T06:36:32;16.90;99.90
73360;DHT22;63092;43.582;19.528;2023-06-19T06:38:58;16.90;99.90
73360;DHT22;63092;43.582;19.528;2023-06-19T06:41:24;17.00;99.90
73360;DHT22;63092;43.582;19.528;2023-06-19T06:43:49;17.10;99.90
73360;DHT22;63092;43.582;19.528;2023-06-19T06:46:15;17.10;99.90
73360;DHT22;63092;43.582;19.528;2023-06-19T06:48:41;17.30;99.90
73360;DHT22;63092;43.582;19.528;2023-06-19T06:51:07;17.40;99.90
73360;DHT22;63092;43.582;19.528;2023-06-19T06:53:34;17.50;99.90
73360;DHT22;63092;43.582;19.528;2023-06-19T06:56:00;17.60;99.90
73360;DHT22;63092;43.582;19.528;2023-06-19T06:58:26;17.70;99.90
73360;DHT22;63092;43.582;19.528;2023-06-19T07:00:53;17.80;99.90
73360;DHT22;63092;43.582;19.528;2023-06-19T07:03:19;17.60;99.90
73360;DHT22;63092;43.582;19.528;2023-06-19T07:05:44;17.50;99.90
73360;DHT22;63092;43.582;19.528;2023-06-19T07:08:10;17.70;99.90
73360;DHT22;63092;43.582;19.528;2023-06-19T07:10:36;17.60;99.90
73360;DHT22;63092;43.582;19.528;2023-06-19T07:13:02;17.60;99.90
73360;DHT22;63092;43.582;19.528;2023-06-19T07:15:28;17.50;99.90
73360;DHT22;63092;43.582;19.528;2023-06-19T07:17:54;17.70;99.90
73360;DHT22;63092;43.582;19.528;2023-06-19T07:20:19;17.90;99.90
73360;DHT22;63092;43.582;19.528;2023-06-19T07:22:45;18.00;99.90
73360;DHT22;63092;43.582;19.528;2023-06-19T07:25:12;18.10;99.90
73360;DHT22;63092;43.582;19.528;2023-06-19T07:27:39;18.20;99.90
73360;DHT22;63092;43.582;19.528;2023-06-19T07:30:06;18.30;99.90
73360;DHT22;63092;43.582;19.528;2023-06-19T07:32:32;18.20;99.90
73360;DHT22;63092;43.582;19.528;2023-06-19T07:34:58;18.20;99.90
73360;DHT22;63092;43.582;19.528;2023-06-19T07:37:24;18.20;99.90
73360;DHT22;63092;43.582;19.528;2023-06-19T07:39:51;18.30;99.90
73360;DHT22;63092;43.582;19.528;2023-06-19T07:42:20;18.10;99.90
73360;DHT22;63092;43.582;19.528;2023-06-19T07:44:46;18.20;99.90
73360;DHT22;63092;43.582;19.528;2023-06-19T07:47:14;18.10;99.90
73360;DHT22;63092;43.582;19.528;2023-06-19T07:49:40;18.20;99.90
73360;DHT22;63092;43.582;19.528;2023-06-19T07:52:06;18.30;99.90
73360;DHT22;63092;43.582;19.528;2023-06-19T07:54:34;18.30;99.90
73360;DHT22;63092;43.582;19.528;2023-06-19T07:57:00;18.50;99.90
73360;DHT22;63092;43.582;19.528;2023-06-19T07:59:26;18.50;99.90
73360;DHT22;63092;43.582;19.528;2023-06-19T08:01:52;18.60;99.90
73360;DHT22;63092;43.582;19.528;2023-06-19T08:04:18;18.70;99.90
73360;DHT22;63092;43.582;19.528;2023-06-19T08:06:44;18.80;99.90
73360;DHT22;63092;43.582;19.528;2023-06-19T08:09:09;18.90;99.90
73360;DHT22;63092;43.582;19.528;2023-06-19T08:11:35;18.90;99.90
73360;DHT22;63092;43.582;19.528;2023-06-19T08:14:02;19.00;99.90
73360;DHT22;63092;43.582;19.528;2023-06-19T08:16:28;19.10;99.90
73360;DHT22;63092;43.582;19.528;2023-06-19T08:18:54;19.20;99.90
73360;DHT22;63092;43.582;19.528;2023-06-19T08:21:20;19.30;99.90
73360;DHT22;63092;43.582;19.528;2023-06-19T08:23:47;19.40;99.90
73360;DHT22;63092;43.582;19.528;2023-06-19T08:26:13;19.50;99.90
73360;DHT22;63092;43.582;19.528;2023-06-19T08:28:39;19.60;99.90
73360;DHT22;63092;43.582;19.528;2023-06-19T08:31:07;19.70;99.90
73360;DHT22;63092;43.582;19.528;2023-06-19T08:33:34;19.80;99.90
73360;DHT22;63092;43.582;19.528;2023-06-19T08:36:00;19.90;99.90
73360;DHT22;63092;43.582;19.528;2023-06-19T08:38:26;20.00;99.90
73360;DHT22;63092;43.582;19.528;2023-06-19T08:40:52;20.10;99.90
73360;DHT22;63092;43.582;19.528;2023-06-19T08:43:18;20.30;99.90
73360;DHT22;63092;43.582;19.528;2023-06-19T08:48:27;20.50;99.30
73360;DHT22;63092;43.582;19.528;2023-06-19T08:53:19;20.70;98.60
73360;DHT22;63092;43.582;19.528;2023-06-19T08:55:45;20.80;98.40
73360;DHT22;63092;43.582;19.528;2023-06-19T08:58:11;21.00;98.80
73360;DHT22;63092;43.582;19.528;2023-06-19T09:00:38;21.00;98.90
73360;DHT22;63092;43.582;19.528;2023-06-19T09:03:04;21.00;98.10
73360;DHT22;63092;43.582;19.528;2023-06-19T09:05:30;21.10;96.80
73360;DHT22;63092;43.582;19.528;2023-06-19T09:07:57;21.20;96.90
73360;DHT22;63092;43.582;19.528;2023-06-19T09:10:24;21.20;97.50
73360;DHT22;63092;43.582;19.528;2023-06-19T09:13:00;21.30;97.80
73360;DHT22;63092;43.582;19.528;2023-06-19T09:15:28;21.40;98.40
73360;DHT22;63092;43.582;19.528;2023-06-19T09:18:05;21.40;96.70
73360;DHT22;63092;43.582;19.528;2023-06-19T09:20:37;21.60;97.30
73360;DHT22;63092;43.582;19.528;2023-06-19T09:23:07;21.80;98.00
73360;DHT22;63092;43.582;19.528;2023-06-19T09:25:52;21.90;97.20
73360;DHT22;63092;43.582;19.528;2023-06-19T09:28:23;22.00;97.60
73360;DHT22;63092;43.582;19.528;2023-06-19T09:31:02;22.10;97.20
73360;DHT22;63092;43.582;19.528;2023-06-19T09:33:33;22.10;95.90
73360;DHT22;63092;43.582;19.528;2023-06-19T09:36:01;22.30;97.10
73360;DHT22;63092;43.582;19.528;2023-06-19T09:38:29;22.50;96.30
73360;DHT22;63092;43.582;19.528;2023-06-19T09:40:57;22.70;96.20
73360;DHT22;63092;43.582;19.528;2023-06-19T09:43:38;22.70;96.00
73360;DHT22;63092;43.582;19.528;2023-06-19T09:46:05;22.80;96.20
73360;DHT22;63092;43.582;19.528;2023-06-19T09:48:33;22.90;95.20
73360;DHT22;63092;43.582;19.528;2023-06-19T09:53:48;23.00;96.50
73360;DHT22;63092;43.582;19.528;2023-06-19T09:56:15;23.10;95.60
73360;DHT22;63092;43.582;19.528;2023-06-19T09:58:42;23.10;95.10
73360;DHT22;63092;43.582;19.528;2023-06-19T10:01:09;23.20;95.20
73360;DHT22;63092;43.582;19.528;2023-06-19T10:03:36;23.20;94.20
73360;DHT22;63092;43.582;19.528;2023-06-19T10:06:03;23.30;95.10
73360;DHT22;63092;43.582;19.528;2023-06-19T10:08:39;23.30;95.30
73360;DHT22;63092;43.582;19.528;2023-06-19T10:11:05;23.40;96.80
73360;DHT22;63092;43.582;19.528;2023-06-19T10:13:33;23.50;96.90
73360;DHT22;63092;43.582;19.528;2023-06-19T10:16:00;23.50;97.00
73360;DHT22;63092;43.582;19.528;2023-06-19T10:18:26;23.50;96.20
73360;DHT22;63092;43.582;19.528;2023-06-19T10:20:54;23.60;93.30
73360;DHT22;63092;43.582;19.528;2023-06-19T10:23:23;23.70;93.00
73360;DHT22;63092;43.582;19.528;2023-06-19T10:26:00;23.90;95.50
73360;DHT22;63092;43.582;19.528;2023-06-19T10:31:02;23.90;92.00
73360;DHT22;63092;43.582;19.528;2023-06-19T10:33:36;24.00;92.70
73360;DHT22;63092;43.582;19.528;2023-06-19T10:36:23;24.10;92.30
73360;DHT22;63092;43.582;19.528;2023-06-19T10:38:50;24.20;91.70
73360;DHT22;63092;43.582;19.528;2023-06-19T10:41:21;24.20;91.90
73360;DHT22;63092;43.582;19.528;2023-06-19T10:44:06;24.40;91.20
73360;DHT22;63092;43.582;19.528;2023-06-19T10:46:36;24.50;90.10
73360;DHT22;63092;43.582;19.528;2023-06-19T10:49:03;24.50;84.80
73360;DHT22;63092;43.582;19.528;2023-06-19T10:51:41;24.60;88.70
73360;DHT22;63092;43.582;19.528;2023-06-19T10:56:35;24.80;88.70
73360;DHT22;63092;43.582;19.528;2023-06-19T10:59:04;24.90;88.50
73360;DHT22;63092;43.582;19.528;2023-06-19T11:01:47;25.00;88.80
73360;DHT22;63092;43.582;19.528;2023-06-19T11:04:15;25.10;89.30
73360;DHT22;63092;43.582;19.528;2023-06-19T11:06:42;25.20;86.70
73360;DHT22;63092;43.582;19.528;2023-06-19T11:09:10;25.30;87.30
73360;DHT22;63092;43.582;19.528;2023-06-19T11:11:46;25.30;84.00
73360;DHT22;63092;43.582;19.528;2023-06-19T11:14:14;25.30;85.60
73360;DHT22;63092;43.582;19.528;2023-06-19T11:16:42;25.40;84.50
73360;DHT22;63092;43.582;19.528;2023-06-19T11:19:09;25.40;85.00
73360;DHT22;63092;43.582;19.528;2023-06-19T11:21:36;25.60;87.20
73360;DHT22;63092;43.582;19.528;2023-06-19T11:24:11;25.60;83.80
73360;DHT22;63092;43.582;19.528;2023-06-19T11:26:42;25.60;81.60
73360;DHT22;63092;43.582;19.528;2023-06-19T11:29:22;25.70;81.70
73360;DHT22;63092;43.582;19.528;2023-06-19T11:34:15;25.90;83.10
73360;DHT22;63092;43.582;19.528;2023-06-19T11:36:42;26.00;76.60
73360;DHT22;63092;43.582;19.528;2023-06-19T11:39:12;25.90;79.20
73360;DHT22;63092;43.582;19.528;2023-06-19T11:41:43;26.00;75.10
73360;DHT22;63092;43.582;19.528;2023-06-19T11:44:10;26.10;74.40
73360;DHT22;63092;43.582;19.528;2023-06-19T11:49:16;26.10;72.50
73360;DHT22;63092;43.582;19.528;2023-06-19T11:51:45;26.20;73.80
73360;DHT22;63092;43.582;19.528;2023-06-19T11:54:13;26.20;71.40
73360;DHT22;63092;43.582;19.528;2023-06-19T11:56:40;26.30;72.70
73360;DHT22;63092;43.582;19.528;2023-06-19T11:59:07;26.30;72.10
73360;DHT22;63092;43.582;19.528;2023-06-19T12:01:34;26.50;70.90
73360;DHT22;63092;43.582;19.528;2023-06-19T12:04:00;26.50;69.50
73360;DHT22;63092;43.582;19.528;2023-06-19T12:06:27;26.70;72.80
73360;DHT22;63092;43.582;19.528;2023-06-19T12:11:19;26.90;68.70
73360;DHT22;63092;43.582;19.528;2023-06-19T12:13:45;26.90;69.70
73360;DHT22;63092;43.582;19.528;2023-06-19T12:16:11;26.90;68.20
73360;DHT22;63092;43.582;19.528;2023-06-19T12:18:37;26.90;67.90
73360;DHT22;63092;43.582;19.528;2023-06-19T12:21:03;26.90;67.00
73360;DHT22;63092;43.582;19.528;2023-06-19T12:23:29;27.00;66.30
73360;DHT22;63092;43.582;19.528;2023-06-19T12:25:55;27.10;67.10
73360;DHT22;63092;43.582;19.528;2023-06-19T12:30:48;27.20;66.20
73360;DHT22;63092;43.582;19.528;2023-06-19T12:33:16;27.20;65.10
73360;DHT22;63092;43.582;19.528;2023-06-19T12:35:43;27.30;64.30
73360;DHT22;63092;43.582;19.528;2023-06-19T12:38:10;27.30;65.40
73360;DHT22;63092;43.582;19.528;2023-06-19T12:40:39;27.30;66.00
73360;DHT22;63092;43.582;19.528;2023-06-19T12:43:05;27.30;64.60
73360;DHT22;63092;43.582;19.528;2023-06-19T12:45:31;27.40;66.20
73360;DHT22;63092;43.582;19.528;2023-06-19T12:47:57;27.40;65.00
73360;DHT22;63092;43.582;19.528;2023-06-19T12:50:23;27.40;64.70
73360;DHT22;63092;43.582;19.528;2023-06-19T12:52:50;27.40;63.90
73360;DHT22;63092;43.582;19.528;2023-06-19T12:55:18;27.40;63.50
73360;DHT22;63092;43.582;19.528;2023-06-19T13:00:13;27.60;64.80
73360;DHT22;63092;43.582;19.528;2023-06-19T13:02:39;27.60;63.10
73360;DHT22;63092;43.582;19.528;2023-06-19T13:05:06;27.60;66.00
73360;DHT22;63092;43.582;19.528;2023-06-19T13:07:32;27.60;64.30
73360;DHT22;63092;43.582;19.528;2023-06-19T13:09:58;27.70;63.00
73360;DHT22;63092;43.582;19.528;2023-06-19T13:12:24;27.60;64.00
73360;DHT22;63092;43.582;19.528;2023-06-19T13:14:50;27.70;62.90
73360;DHT22;63092;43.582;19.528;2023-06-19T13:17:15;27.70;62.30
73360;DHT22;63092;43.582;19.528;2023-06-19T13:19:41;27.70;62.70
73360;DHT22;63092;43.582;19.528;2023-06-19T13:22:07;27.70;65.00
73360;DHT22;63092;43.582;19.528;2023-06-19T13:24:33;27.80;62.60
73360;DHT22;63092;43.582;19.528;2023-06-19T13:26:59;27.80;63.80
73360;DHT22;63092;43.582;19.528;2023-06-19T13:29:24;27.80;62.50
73360;DHT22;63092;43.582;19.528;2023-06-19T13:31:50;27.80;62.50
73360;DHT22;63092;43.582;19.528;2023-06-19T13:34:16;27.90;61.70
73360;DHT22;63092;43.582;19.528;2023-06-19T13:36:44;27.80;62.20
73360;DHT22;63092;43.582;19.528;2023-06-19T13:39:09;27.90;62.50
73360;DHT22;63092;43.582;19.528;2023-06-19T13:41:36;28.00;62.80
73360;DHT22;63092;43.582;19.528;2023-06-19T13:44:02;28.00;62.80
73360;DHT22;63092;43.582;19.528;2023-06-19T13:48:54;28.10;61.50
73360;DHT22;63092;43.582;19.528;2023-06-19T13:51:21;28.10;61.00
73360;DHT22;63092;43.582;19.528;2023-06-19T13:53:48;28.10;61.10
73360;DHT22;63092;43.582;19.528;2023-06-19T13:56:14;28.10;61.90
73360;DHT22;63092;43.582;19.528;2023-06-19T13:58:41;28.20;61.90
73360;DHT22;63092;43.582;19.528;2023-06-19T14:01:07;28.20;63.50
73360;DHT22;63092;43.582;19.528;2023-06-19T14:03:32;28.20;60.80
73360;DHT22;63092;43.582;19.528;2023-06-19T14:05:58;28.20;61.20
73360;DHT22;63092;43.582;19.528;2023-06-19T14:08:24;28.30;61.30
73360;DHT22;63092;43.582;19.528;2023-06-19T14:13:17;28.30;63.80
73360;DHT22;63092;43.582;19.528;2023-06-19T14:15:43;28.30;63.90
73360;DHT22;63092;43.582;19.528;2023-06-19T14:18:08;28.30;64.30
73360;DHT22;63092;43.582;19.528;2023-06-19T14:20:34;28.30;63.70
73360;DHT22;63092;43.582;19.528;2023-06-19T14:23:00;28.30;63.20
73360;DHT22;63092;43.582;19.528;2023-06-19T14:25:26;28.30;64.50
73360;DHT22;63092;43.582;19.528;2023-06-19T14:27:52;28.30;64.90
73360;DHT22;63092;43.582;19.528;2023-06-19T14:30:18;28.30;63.90
73360;DHT22;63092;43.582;19.528;2023-06-19T14:32:44;28.30;64.10
73360;DHT22;63092;43.582;19.528;2023-06-19T14:35:10;28.30;65.70
73360;DHT22;63092;43.582;19.528;2023-06-19T14:37:36;28.30;65.00
73360;DHT22;63092;43.582;19.528;2023-06-19T14:40:02;28.30;64.50
73360;DHT22;63092;43.582;19.528;2023-06-19T14:42:28;28.30;64.70
73360;DHT22;63092;43.582;19.528;2023-06-19T14:44:54;28.30;68.80
73360;DHT22;63092;43.582;19.528;2023-06-19T14:47:20;28.30;65.30
73360;DHT22;63092;43.582;19.528;2023-06-19T14:49:46;28.30;64.50
73360;DHT22;63092;43.582;19.528;2023-06-19T14:52:13;28.30;61.20
73360;DHT22;63092;43.582;19.528;2023-06-19T14:54:40;28.30;64.10
73360;DHT22;63092;43.582;19.528;2023-06-19T14:57:06;28.30;65.00
73360;DHT22;63092;43.582;19.528;2023-06-19T14:59:32;28.30;64.20
73360;DHT22;63092;43.582;19.528;2023-06-19T15:04:24;28.40;63.70
73360;DHT22;63092;43.582;19.528;2023-06-19T15:06:49;28.40;64.10
73360;DHT22;63092;43.582;19.528;2023-06-19T15:09:15;28.40;65.00
73360;DHT22;63092;43.582;19.528;2023-06-19T15:11:41;28.40;64.40
73360;DHT22;63092;43.582;19.528;2023-06-19T15:14:07;28.40;67.40
73360;DHT22;63092;43.582;19.528;2023-06-19T15:16:33;28.40;65.90
73360;DHT22;63092;43.582;19.528;2023-06-19T15:18:59;28.40;65.60
73360;DHT22;63092;43.582;19.528;2023-06-19T15:21:24;28.50;67.50
73360;DHT22;63092;43.582;19.528;2023-06-19T15:23:53;28.50;65.80
73360;DHT22;63092;43.582;19.528;2023-06-19T15:26:20;28.40;65.30
73360;DHT22;63092;43.582;19.528;2023-06-19T15:28:46;28.40;66.00
73360;DHT22;63092;43.582;19.528;2023-06-19T15:31:13;28.40;66.90
73360;DHT22;63092;43.582;19.528;2023-06-19T15:33:41;28.40;69.60
73360;DHT22;63092;43.582;19.528;2023-06-19T15:36:07;28.40;69.40
73360;DHT22;63092;43.582;19.528;2023-06-19T15:38:33;28.30;70.60
73360;DHT22;63092;43.582;19.528;2023-06-19T15:40:59;28.30;71.00
73360;DHT22;63092;43.582;19.528;2023-06-19T15:43:25;28.20;70.80
73360;DHT22;63092;43.582;19.528;2023-06-19T15:45:57;28.10;71.50
73360;DHT22;63092;43.582;19.528;2023-06-19T15:48:23;28.00;70.40
73360;DHT22;63092;43.582;19.528;2023-06-19T15:50:49;27.90;71.90
73360;DHT22;63092;43.582;19.528;2023-06-19T15:53:15;27.90;73.30
73360;DHT22;63092;43.582;19.528;2023-06-19T15:55:41;27.80;74.10